sensor_id;sensor_type;location;lat;lon;timestamp;pressure;altitude;pressure_sealevel;temperature;humidity
2268;BME280;11052;43.338;25.502;2023-04-15T00:02:15;99793.63;;;12.57;100.00
2268;BME280;11052;43.338;25.502;2023-04-15T00:04:43;99794.53;;;12.56;100.00
2268;BME280;11052;43.338;25.502;2023-04-15T00:07:10;99793.63;;;12.57;100.00
2268;BME280;11052;43.338;25.502;2023-04-15T00:09:39;99803.19;;;12.57;100.00
2268;BME280;11052;43.338;25.502;2023-04-15T00:12:06;99805.84;;;12.55;100.00
2268;BME280;11052;43.338;25.502;2023-04-15T00:14:34;99809.44;;;12.53;100.00
2268;BME280;11052;43.338;25.502;2023-04-15T00:17:01;99802.50;;;12.53;100.00
2268;BME280;11052;43.338;25.502;2023-04-15T00:19:29;99795.47;;;12.55;100.00
2268;BME280;11052;43.338;25.502;2023-04-15T00:21:56;99787.53;;;12.58;100.00
2268;BME280;11052;43.338;25.502;2023-04-15T00:24:23;99791.16;;;12.54;100.00
2268;BME280;11052;43.338;25.502;2023-04-15T00:26:51;99787.16;;;12.66;100.00
2268;BME280;11052;43.338;25.502;2023-04-15T00:29:19;99795.75;;;12.49;100.00
2268;BME280;11052;43.338;25.502;2023-04-15T00:31:46;99786.88;;;12.34;100.00
2268;BME280;11052;43.338;25.502;2023-04-15T00:34:13;99785.03;;;12.18;100.00
2268;BME280;11052;43.338;25.502;2023-04-15T00:36:40;99767.84;;;12.15;100.00
2268;BME280;11052;43.338;25.502;2023-04-15T00:39:07;99767.22;;;12.29;100.00
2268;BME280;11052;43.338;25.502;2023-04-15T00:41:34;99769.19;;;12.24;100.00
2268;BME280;11052;43.338;25.502;2023-04-15T00:44:05;99773.47;;;12.25;100.00
2268;BME280;11052;43.338;25.502;2023-04-15T00:46:34;99787.94;;;12.30;100.00
2268;BME280;11052;43.338;25.502;2023-04-15T00:49:03;99811.75;;;12.21;100.00
2268;BME280;11052;43.338;25.502;2023-04-15T00:51:32;99823.81;;;12.22;100.00
2268;BME280;11052;43.338;25.502;2023-04-15T00:54:01;99818.69;;;12.21;100.00
2268;BME280;11052;43.338;25.502;2023-04-15T00:56:29;99806.53;;;12.02;100.00
2268;BME280;11052;43.338;25.502;2023-04-15T00:58:57;99801.47;;;11.99;100.00
2268;BME280;11052;43.338;25.502;2023-04-15T01:01:26;99817.31;;;11.93;100.00
2268;BME280;11052;43.338;25.502;2023-04-15T01:03:55;99792.56;;;12.05;100.00
2268;BME280;11052;43.338;25.502;2023-04-15T01:06:23;99793.75;;;12.17;100.00
2268;BME280;11052;43.338;25.502;2023-04-15T01:08:52;99808.28;;;12.21;100.00
2268;BME280;11052;43.338;25.502;2023-04-15T01:11:19;99810.47;;;12.30;100.00
2268;BME280;11052;43.338;25.502;2023-04-15T01:13:47;99800.94;;;12.30;100.00
2268;BME280;11052;43.338;25.502;2023-04-15T01:16:14;99798.81;;;12.38;100.00
2268;BME280;11052;43.338;25.502;2023-04-15T01:18:43;99815.41;;;12.36;100.00
2268;BME280;11052;43.338;25.502;2023-04-15T01:21:11;99819.75;;;12.35;100.00
2268;BME280;11052;43.338;25.502;2023-04-15T01:23:38;99823.53;;;12.28;100.00
2268;BME280;11052;43.338;25.502;2023-04-15T01:26:07;99818.91;;;12.35;100.00
2268;BME280;11052;43.338;25.502;2023-04-15T01:28:34;99816.88;;;12.23;100.00
2268;BME280;11052;43.338;25.502;2023-04-15T01:31:06;99821.31;;;12.39;100.00
2268;BME280;11052;43.338;25.502;2023-04-15T01:33:34;99792.22;;;12.31;100.00
2268;BME280;11052;43.338;25.502;2023-04-15T01:36:01;99775.78;;;12.31;100.00
2268;BME280;11052;43.338;25.502;2023-04-15T01:38:29;99775.66;;;12.34;100.00
2268;BME280;11052;43.338;25.502;2023-04-15T01:40:57;99774.81;;;12.33;100.00
2268;BME280;11052;43.338;25.502;2023-04-15T01:43:25;99767.91;;;12.32;100.00
2268;BME280;11052;43.338;25.502;2023-04-15T01:45:53;99776.50;;;12.34;100.00
2268;BME280;11052;43.338;25.502;2023-04-15T01:48:20;99787.03;;;12.31;100.00
2268;BME280;11052;43.338;25.502;2023-04-15T01:50:48;99803.53;;;12.30;100.00
2268;BME280;11052;43.338;25.502;2023-04-15T01:53:15;99813.16;;;12.28;100.00
2268;BME280;11052;43.338;25.502;2023-04-15T01:55:42;99808.78;;;12.29;100.00
2268;BME280;11052;43.338;25.502;2023-04-15T01:58:09;99797.63;;;12.27;100.00
2268;BME280;11052;43.338;25.502;2023-04-15T02:00:38;99789.97;;;12.24;100.00
2268;BME280;11052;43.338;25.502;2023-04-15T02:03:05;99793.47;;;12.23;100.00
2268;BME280;11052;43.338;25.502;2023-04-15T02:05:32;99803.09;;;12.21;100.00
2268;BME280;11052;43.338;25.502;2023-04-15T02:07:59;99806.19;;;12.10;100.00
2268;BME280;11052;43.338;25.502;2023-04-15T02:10:26;99800.38;;;12.05;100.00
2268;BME280;11052;43.338;25.502;2023-04-15T02:12:53;99783.16;;;12.02;100.00
2268;BME280;11052;43.338;25.502;2023-04-15T02:15:21;99772.66;;;11.85;100.00
2268;BME280;11052;43.338;25.502;2023-04-15T02:17:49;99772.88;;;11.80;100.00
2268;BME280;11052;43.338;25.502;2023-04-15T02:20:19;99791.88;;;11.81;100.00
2268;BME280;11052;43.338;25.502;2023-04-15T02:22:47;99793.50;;;11.84;100.00
2268;BME280;11052;43.338;25.502;2023-04-15T02:25:14;99809.16;;;11.82;100.00
2268;BME280;11052;43.338;25.502;2023-04-15T02:27:42;99817.06;;;11.79;100.00
2268;BME280;11052;43.338;25.502;2023-04-15T02:30:10;99821.59;;;11.74;100.00
2268;BME280;11052;43.338;25.502;2023-04-15T02:32:37;99823.41;;;11.72;100.00
2268;BME280;11052;43.338;25.502;2023-04-15T02:35:07;99816.66;;;11.68;100.00
2268;BME280;11052;43.338;25.502;2023-04-15T02:37:36;99806.00;;;11.54;100.00
2268;BME280;11052;43.338;25.502;2023-04-15T02:40:08;99815.59;;;11.52;100.00
2268;BME280;11052;43.338;25.502;2023-04-15T02:42:37;99806.19;;;11.49;100.00
2268;BME280;11052;43.338;25.502;2023-04-15T02:45:05;99799.31;;;11.48;100.00
2268;BME280;11052;43.338;25.502;2023-04-15T02:47:33;99793.13;;;11.30;100.00
2268;BME280;11052;43.338;25.502;2023-04-15T02:50:01;99791.38;;;11.31;100.00
2268;BME280;11052;43.338;25.502;2023-04-15T02:52:30;99790.94;;;11.21;100.00
2268;BME280;11052;43.338;25.502;2023-04-15T02:54:57;99816.16;;;11.18;100.00
2268;BME280;11052;43.338;25.502;2023-04-15T02:57:25;99831.97;;;11.11;100.00
2268;BME280;11052;43.338;25.502;2023-04-15T02:59:53;99845.13;;;11.07;100.00
2268;BME280;11052;43.338;25.502;2023-04-15T03:02:21;99837.28;;;11.08;100.00
2268;BME280;11052;43.338;25.502;2023-04-15T03:04:48;99849.59;;;11.03;100.00
2268;BME280;11052;43.338;25.502;2023-04-15T03:07:16;99851.41;;;11.01;100.00
2268;BME280;11052;43.338;25.502;2023-04-15T03:09:45;99867.84;;;11.00;100.00
2268;BME280;11052;43.338;25.502;2023-04-15T03:12:12;99878.53;;;10.93;100.00
2268;BME280;11052;43.338;25.502;2023-04-15T03:14:39;99877.63;;;10.94;100.00
2268;BME280;11052;43.338;25.502;2023-04-15T03:17:07;99879.59;;;10.87;100.00
2268;BME280;11052;43.338;25.502;2023-04-15T03:19:34;99871.22;;;10.57;100.00
2268;BME280;11052;43.338;25.502;2023-04-15T03:22:01;99884.19;;;10.57;100.00
2268;BME280;11052;43.338;25.502;2023-04-15T03:24:28;99875.38;;;10.61;100.00
2268;BME280;11052;43.338;25.502;2023-04-15T03:26:56;99876.28;;;10.60;100.00
2268;BME280;11052;43.338;25.502;2023-04-15T03:29:24;99870.88;;;10.66;100.00
2268;BME280;11052;43.338;25.502;2023-04-15T03:31:51;99866.72;;;10.62;100.00
2268;BME280;11052;43.338;25.502;2023-04-15T03:34:19;99861.59;;;10.61;100.00
2268;BME280;11052;43.338;25.502;2023-04-15T03:36:46;99866.03;;;10.57;100.00
2268;BME280;11052;43.338;25.502;2023-04-15T03:39:13;99888.47;;;10.58;100.00
2268;BME280;11052;43.338;25.502;2023-04-15T03:41:40;99903.38;;;10.51;100.00
2268;BME280;11052;43.338;25.502;2023-04-15T03:44:09;99887.09;;;10.48;100.00
2268;BME280;11052;43.338;25.502;2023-04-15T03:46:36;99885.25;;;10.28;100.00
2268;BME280;11052;43.338;25.502;2023-04-15T03:49:05;99873.16;;;10.29;100.00
2268;BME280;11052;43.338;25.502;2023-04-15T03:51:33;99862.09;;;10.24;100.00
2268;BME280;11052;43.338;25.502;2023-04-15T03:54:00;99872.16;;;10.33;100.00
2268;BME280;11052;43.338;25.502;2023-04-15T03:56:27;99883.25;;;10.36;100.00
2268;BME280;11052;43.338;25.502;2023-04-15T03:58:55;99893.06;;;10.50;100.00
2268;BME280;11052;43.338;25.502;2023-04-15T04:01:23;99886.81;;;10.56;100.00
2268;BME280;11052;43.338;25.502;2023-04-15T04:03:50;99887.56;;;10.59;100.00
2268;BME280;11052;43.338;25.502;2023-04-15T04:06:17;99893.59;;;10.60;100.00
2268;BME280;11052;43.338;25.502;2023-04-15T04:08:45;99889.19;;;10.62;100.00
2268;BME280;11052;43.338;25.502;2023-04-15T04:11:12;99898.88;;;10.57;100.00
2268;BME280;11052;43.338;25.502;2023-04-15T04:13:39;99897.81;;;10.62;100.00
2268;BME280;11052;43.338;25.502;2023-04-15T04:16:06;99905.47;;;10.65;100.00
2268;BME280;11052;43.338;25.502;2023-04-15T04:18:35;99910.56;;;10.68;100.00
2268;BME280;11052;43.338;25.502;2023-04-15T04:21:02;99913.25;;;10.65;100.00
2268;BME280;11052;43.338;25.502;2023-04-15T04:23:30;99914.94;;;10.66;100.00
2268;BME280;11052;43.338;25.502;2023-04-15T04:25:57;99912.41;;;10.65;100.00
2268;BME280;11052;43.338;25.502;2023-04-15T04:28:24;99921.72;;;10.70;100.00
2268;BME280;11052;43.338;25.502;2023-04-15T04:30:51;99929.25;;;10.76;100.00
2268;BME280;11052;43.338;25.502;2023-04-15T04:33:18;99932.31;;;10.88;100.00
2268;BME280;11052;43.338;25.502;2023-04-15T04:35:47;99935.69;;;10.90;100.00
2268;BME280;11052;43.338;25.502;2023-04-15T04:38:14;99934.72;;;10.92;100.00
2268;BME280;11052;43.338;25.502;2023-04-15T04:40:41;99942.22;;;11.00;100.00
2268;BME280;11052;43.338;25.502;2023-04-15T04:43:08;99939.53;;;11.03;100.00
2268;BME280;11052;43.338;25.502;2023-04-15T04:45:35;99943.69;;;11.07;100.00
2268;BME280;11052;43.338;25.502;2023-04-15T04:48:03;99946.22;;;11.08;100.00
2268;BME280;11052;43.338;25.502;2023-04-15T04:50:31;99954.44;;;11.20;100.00
2268;BME280;11052;43.338;25.502;2023-04-15T04:53:00;99958.41;;;11.28;100.00
2268;BME280;11052;43.338;25.502;2023-04-15T04:55:27;99968.44;;;11.37;100.00
2268;BME280;11052;43.338;25.502;2023-04-15T04:57:54;99975.16;;;11.43;100.00
2268;BME280;11052;43.338;25.502;2023-04-15T05:00:21;99983.53;;;11.49;100.00
2268;BME280;11052;43.338;25.502;2023-04-15T05:02:49;99989.47;;;11.53;100.00
2268;BME280;11052;43.338;25.502;2023-04-15T05:05:16;99999.38;;;11.65;100.00
2268;BME280;11052;43.338;25.502;2023-04-15T05:07:43;99998.16;;;11.74;100.00
2268;BME280;11052;43.338;25.502;2023-04-15T05:10:12;100002.13;;;11.84;100.00
2268;BME280;11052;43.338;25.502;2023-04-15T05:12:39;99999.16;;;11.93;100.00
2268;BME280;11052;43.338;25.502;2023-04-15T05:15:08;99998.00;;;12.00;100.00
2268;BME280;11052;43.338;25.502;2023-04-15T05:17:35;99986.56;;;12.04;100.00
2268;BME280;11052;43.338;25.502;2023-04-15T05:20:02;99988.91;;;12.10;100.00
2268;BME280;11052;43.338;25.502;2023-04-15T05:22:29;99999.16;;;12.13;100.00
2268;BME280;11052;43.338;25.502;2023-04-15T05:24:56;99998.13;;;12.18;100.00
2268;BME280;11052;43.338;25.502;2023-04-15T05:27:25;99988.38;;;12.23;100.00
2268;BME280;11052;43.338;25.502;2023-04-15T05:29:52;99996.19;;;12.23;100.00
2268;BME280;11052;43.338;25.502;2023-04-15T05:32:19;99989.81;;;12.30;100.00
2268;BME280;11052;43.338;25.502;2023-04-15T05:34:46;100000.16;;;12.31;100.00
2268;BME280;11052;43.338;25.502;2023-04-15T05:37:13;99999.03;;;12.37;100.00
2268;BME280;11052;43.338;25.502;2023-04-15T05:39:41;99996.44;;;12.37;100.00
2268;BME280;11052;43.338;25.502;2023-04-15T05:42:08;100006.38;;;12.47;100.00
2268;BME280;11052;43.338;25.502;2023-04-15T05:44:36;100008.06;;;12.69;100.00
2268;BME280;11052;43.338;25.502;2023-04-15T05:47:03;100014.44;;;13.01;100.00
2268;BME280;11052;43.338;25.502;2023-04-15T05:49:31;100029.34;;;13.18;100.00
2268;BME280;11052;43.338;25.502;2023-04-15T05:51:58;100022.72;;;13.29;100.00
2268;BME280;11052;43.338;25.502;2023-04-15T05:54:25;100024.69;;;13.24;100.00
2268;BME280;11052;43.338;25.502;2023-04-15T05:56:53;100014.91;;;13.29;100.00
2268;BME280;11052;43.338;25.502;2023-04-15T05:59:21;100020.75;;;13.34;100.00
2268;BME280;11052;43.338;25.502;2023-04-15T06:01:49;100018.84;;;13.38;100.00
2268;BME280;11052;43.338;25.502;2023-04-15T06:04:17;100019.22;;;13.49;100.00
2268;BME280;11052;43.338;25.502;2023-04-15T06:06:44;100013.59;;;14.11;100.00
2268;BME280;11052;43.338;25.502;2023-04-15T06:09:11;100015.59;;;14.41;100.00
2268;BME280;11052;43.338;25.502;2023-04-15T06:11:38;100016.22;;;14.96;100.00
2268;BME280;11052;43.338;25.502;2023-04-15T06:14:06;100013.94;;;15.70;100.00
2268;BME280;11052;43.338;25.502;2023-04-15T06:16:33;100018.69;;;16.10;100.00
2268;BME280;11052;43.338;25.502;2023-04-15T06:19:02;100019.50;;;16.26;100.00
2268;BME280;11052;43.338;25.502;2023-04-15T06:21:30;100023.56;;;16.16;100.00
2268;BME280;11052;43.338;25.502;2023-04-15T06:23:58;100027.91;;;16.31;100.00
2268;BME280;11052;43.338;25.502;2023-04-15T06:26:26;100027.50;;;16.23;100.00
2268;BME280;11052;43.338;25.502;2023-04-15T06:28:53;100030.25;;;16.80;100.00
2268;BME280;11052;43.338;25.502;2023-04-15T06:31:20;100041.97;;;17.17;100.00
2268;BME280;11052;43.338;25.502;2023-04-15T06:33:47;100050.69;;;17.17;100.00
2268;BME280;11052;43.338;25.502;2023-04-15T06:36:16;100053.03;;;17.63;100.00
2268;BME280;11052;43.338;25.502;2023-04-15T06:38:44;100046.81;;;18.19;100.00
2268;BME280;11052;43.338;25.502;2023-04-15T06:41:11;100058.72;;;18.50;100.00
2268;BME280;11052;43.338;25.502;2023-04-15T06:43:38;100071.50;;;18.69;100.00
2268;BME280;11052;43.338;25.502;2023-04-15T06:46:05;100071.81;;;18.90;100.00
2268;BME280;11052;43.338;25.502;2023-04-15T06:48:32;100075.19;;;19.05;100.00
2268;BME280;11052;43.338;25.502;2023-04-15T06:50:59;100079.25;;;19.34;100.00
2268;BME280;11052;43.338;25.502;2023-04-15T06:53:29;100075.38;;;19.52;100.00
2268;BME280;11052;43.338;25.502;2023-04-15T06:55:57;100079.03;;;19.50;97.88
2268;BME280;11052;43.338;25.502;2023-04-15T06:58:24;100082.28;;;19.66;100.00
2268;BME280;11052;43.338;25.502;2023-04-15T07:00:51;100079.50;;;19.80;93.45
2268;BME280;11052;43.338;25.502;2023-04-15T07:03:19;100084.66;;;20.06;90.28
2268;BME280;11052;43.338;25.502;2023-04-15T07:05:46;100090.38;;;20.23;92.59
2268;BME280;11052;43.338;25.502;2023-04-15T07:08:13;100081.69;;;20.34;88.08
2268;BME280;11052;43.338;25.502;2023-04-15T07:10:41;100079.22;;;20.44;81.38
2268;BME280;11052;43.338;25.502;2023-04-15T07:13:09;100084.31;;;20.58;87.91
2268;BME280;11052;43.338;25.502;2023-04-15T07:15:36;100083.88;;;20.86;83.33
2268;BME280;11052;43.338;25.502;2023-04-15T07:18:03;100084.75;;;20.98;82.22
2268;BME280;11052;43.338;25.502;2023-04-15T07:20:30;100092.41;;;21.01;78.97
2268;BME280;11052;43.338;25.502;2023-04-15T07:22:57;100092.66;;;20.98;75.57
2268;BME280;11052;43.338;25.502;2023-04-15T07:25:24;100091.16;;;21.29;78.14
2268;BME280;11052;43.338;25.502;2023-04-15T07:27:53;100089.13;;;21.55;79.04
2268;BME280;11052;43.338;25.502;2023-04-15T07:30:20;100086.25;;;21.58;75.10
2268;BME280;11052;43.338;25.502;2023-04-15T07:32:47;100096.19;;;21.43;73.33
2268;BME280;11052;43.338;25.502;2023-04-15T07:35:15;100094.75;;;21.50;65.80
2268;BME280;11052;43.338;25.502;2023-04-15T07:37:42;100104.94;;;21.55;63.12
2268;BME280;11052;43.338;25.502;2023-04-15T07:40:10;100100.16;;;21.49;66.83
2268;BME280;11052;43.338;25.502;2023-04-15T07:42:39;100105.19;;;21.63;67.68
2268;BME280;11052;43.338;25.502;2023-04-15T07:45:09;100109.03;;;21.59;64.54
2268;BME280;11052;43.338;25.502;2023-04-15T07:47:37;100111.53;;;21.61;65.41
2268;BME280;11052;43.338;25.502;2023-04-15T07:50:05;100114.72;;;21.75;66.66
2268;BME280;11052;43.338;25.502;2023-04-15T07:52:33;100120.00;;;21.75;63.76
2268;BME280;11052;43.338;25.502;2023-04-15T07:55:04;100116.47;;;20.97;63.32
2268;BME280;11052;43.338;25.502;2023-04-15T07:57:33;100117.41;;;21.42;67.01
2268;BME280;11052;43.338;25.502;2023-04-15T08:00:00;100124.50;;;21.52;62.94
2268;BME280;11052;43.338;25.502;2023-04-15T08:02:30;100128.94;;;21.63;66.95
2268;BME280;11052;43.338;25.502;2023-04-15T08:04:57;100133.84;;;21.45;63.33
2268;BME280;11052;43.338;25.502;2023-04-15T08:07:24;100136.25;;;21.59;61.86
2268;BME280;11052;43.338;25.502;2023-04-15T08:09:51;100131.56;;;21.41;61.45
2268;BME280;11052;43.338;25.502;2023-04-15T08:12:18;100138.53;;;21.64;64.95
2268;BME280;11052;43.338;25.502;2023-04-15T08:14:46;100134.25;;;21.17;63.48
2268;BME280;11052;43.338;25.502;2023-04-15T08:17:13;100129.66;;;21.54;66.90
2268;BME280;11052;43.338;25.502;2023-04-15T08:19:42;100137.75;;;21.73;65.23
2268;BME280;11052;43.338;25.502;2023-04-15T08:22:09;100140.66;;;21.70;65.66
2268;BME280;11052;43.338;25.502;2023-04-15T08:24:36;100136.06;;;22.06;66.07
2268;BME280;11052;43.338;25.502;2023-04-15T08:27:04;100139.66;;;22.16;64.04
2268;BME280;11052;43.338;25.502;2023-04-15T08:29:32;100133.41;;;22.17;62.20
2268;BME280;11052;43.338;25.502;2023-04-15T08:32:00;100132.97;;;22.44;63.08
2268;BME280;11052;43.338;25.502;2023-04-15T08:34:28;100139.16;;;22.54;61.73
2268;BME280;11052;43.338;25.502;2023-04-15T08:36:57;100133.34;;;22.39;61.71
2268;BME280;11052;43.338;25.502;2023-04-15T08:39:24;100145.75;;;22.28;63.83
2268;BME280;11052;43.338;25.502;2023-04-15T08:41:55;100141.53;;;21.59;58.99
2268;BME280;11052;43.338;25.502;2023-04-15T08:44:28;100142.59;;;21.57;64.32
2268;BME280;11052;43.338;25.502;2023-04-15T08:46:56;100140.78;;;21.46;58.60
2268;BME280;11052;43.338;25.502;2023-04-15T08:49:28;100145.13;;;21.58;61.64
2268;BME280;11052;43.338;25.502;2023-04-15T08:51:58;100132.81;;;21.13;64.17
2268;BME280;11052;43.338;25.502;2023-04-15T08:54:26;100141.03;;;20.97;61.53
2268;BME280;11052;43.338;25.502;2023-04-15T08:56:53;100139.38;;;21.07;65.84
2268;BME280;11052;43.338;25.502;2023-04-15T08:59:21;100145.63;;;21.17;62.13
2268;BME280;11052;43.338;25.502;2023-04-15T09:01:49;100143.34;;;21.13;62.65
2268;BME280;11052;43.338;25.502;2023-04-15T09:04:16;100137.53;;;21.32;63.46
2268;BME280;11052;43.338;25.502;2023-04-15T09:06:44;100129.41;;;21.46;66.59
2268;BME280;11052;43.338;25.502;2023-04-15T09:09:12;100137.53;;;21.32;62.89
2268;BME280;11052;43.338;25.502;2023-04-15T09:11:40;100119.69;;;21.24;62.40
2268;BME280;11052;43.338;25.502;2023-04-15T09:14:07;100119.03;;;21.20;62.09
2268;BME280;11052;43.338;25.502;2023-04-15T09:16:54;100109.84;;;21.37;61.87
2268;BME280;11052;43.338;25.502;2023-04-15T09:19:22;100109.63;;;21.29;61.28
2268;BME280;11052;43.338;25.502;2023-04-15T09:21:51;100096.19;;;21.43;62.57
2268;BME280;11052;43.338;25.502;2023-04-15T09:24:21;100098.47;;;21.59;63.48
2268;BME280;11052;43.338;25.502;2023-04-15T09:26:51;100098.22;;;21.51;63.39
2268;BME280;11052;43.338;25.502;2023-04-15T09:29:18;100093.59;;;21.98;63.08
2268;BME280;11052;43.338;25.502;2023-04-15T09:31:46;100093.81;;;21.95;59.13
2268;BME280;11052;43.338;25.502;2023-04-15T09:34:13;100097.75;;;22.22;58.27
2268;BME280;11052;43.338;25.502;2023-04-15T09:36:52;100097.06;;;22.41;59.94
2268;BME280;11052;43.338;25.502;2023-04-15T09:39:22;100097.78;;;22.43;58.23
2268;BME280;11052;43.338;25.502;2023-04-15T09:42:03;100101.03;;;22.47;55.77
2268;BME280;11052;43.338;25.502;2023-04-15T09:44:32;100103.72;;;22.56;56.62
2268;BME280;11052;43.338;25.502;2023-04-15T09:47:00;100092.56;;;22.74;55.33
2268;BME280;11052;43.338;25.502;2023-04-15T09:49:27;100102.44;;;22.72;55.72
2268;BME280;11052;43.338;25.502;2023-04-15T09:51:58;100106.88;;;22.71;50.70
2268;BME280;11052;43.338;25.502;2023-04-15T09:54:33;100101.22;;;22.76;51.48
2268;BME280;11052;43.338;25.502;2023-04-15T09:57:04;100096.31;;;22.50;56.74
2268;BME280;11052;43.338;25.502;2023-04-15T09:59:32;100095.41;;;22.40;52.11
2268;BME280;11052;43.338;25.502;2023-04-15T10:01:59;100095.06;;;22.34;56.44
2268;BME280;11052;43.338;25.502;2023-04-15T10:04:31;100088.63;;;22.68;53.41
2268;BME280;11052;43.338;25.502;2023-04-15T10:07:02;100091.03;;;22.71;54.58
2268;BME280;11052;43.338;25.502;2023-04-15T10:09:32;100086.75;;;22.59;53.95
2268;BME280;11052;43.338;25.502;2023-04-15T10:12:01;100094.50;;;22.51;54.35
2268;BME280;11052;43.338;25.502;2023-04-15T10:14:31;100079.06;;;22.88;53.51
2268;BME280;11052;43.338;25.502;2023-04-15T10:17:01;100076.09;;;23.02;54.86
2268;BME280;11052;43.338;25.502;2023-04-15T10:19:30;100079.97;;;22.98;53.88
2268;BME280;11052;43.338;25.502;2023-04-15T10:21:59;100072.72;;;22.58;55.20
2268;BME280;11052;43.338;25.502;2023-04-15T10:24:26;100073.63;;;22.48;52.96
2268;BME280;11052;43.338;25.502;2023-04-15T10:26:56;100077.28;;;22.36;52.32
2268;BME280;11052;43.338;25.502;2023-04-15T10:29:25;100077.59;;;22.63;54.13
2268;BME280;11052;43.338;25.502;2023-04-15T10:31:53;100072.47;;;23.03;55.70
2268;BME280;11052;43.338;25.502;2023-04-15T10:34:22;100067.16;;;23.24;50.57
2268;BME280;11052;43.338;25.502;2023-04-15T10:36:49;100068.03;;;22.83;53.44
2268;BME280;11052;43.338;25.502;2023-04-15T10:39:42;100067.16;;;22.62;54.81
2268;BME280;11052;43.338;25.502;2023-04-15T10:42:12;100069.16;;;22.69;53.59
2268;BME280;11052;43.338;25.502;2023-04-15T10:44:41;100068.94;;;22.93;52.00
2268;BME280;11052;43.338;25.502;2023-04-15T10:47:13;100068.97;;;22.61;54.26
2268;BME280;11052;43.338;25.502;2023-04-15T10:49:45;100071.63;;;22.40;52.73
2268;BME280;11052;43.338;25.502;2023-04-15T10:52:14;100072.53;;;22.71;52.82
2268;BME280;11052;43.338;25.502;2023-04-15T10:54:42;100070.84;;;23.12;51.99
2268;BME280;11052;43.338;25.502;2023-04-15T10:57:16;100063.59;;;22.83;49.13
2268;BME280;11052;43.338;25.502;2023-04-15T11:00:01;100068.88;;;22.83;52.95
2268;BME280;11052;43.338;25.502;2023-04-15T11:02:44;100065.81;;;22.67;52.78
2268;BME280;11052;43.338;25.502;2023-04-15T11:05:12;100074.16;;;22.83;51.91
2268;BME280;11052;43.338;25.502;2023-04-15T11:07:47;100063.03;;;22.69;49.85
2268;BME280;11052;43.338;25.502;2023-04-15T11:13:28;100069.00;;;22.40;52.88
2268;BME280;11052;43.338;25.502;2023-04-15T11:15:58;100066.13;;;22.32;53.20
2268;BME280;11052;43.338;25.502;2023-04-15T11:18:30;100066.94;;;22.01;52.99
2268;BME280;11052;43.338;25.502;2023-04-15T11:20:59;100062.41;;;21.91;52.17
2268;BME280;11052;43.338;25.502;2023-04-15T11:23:31;100059.38;;;22.07;55.23
2268;BME280;11052;43.338;25.502;2023-04-15T11:25:59;100052.56;;;22.37;53.93
2268;BME280;11052;43.338;25.502;2023-04-15T11:28:29;100057.94;;;22.14;49.83
2268;BME280;11052;43.338;25.502;2023-04-15T11:31:05;100049.78;;;22.06;53.26
2268;BME280;11052;43.338;25.502;2023-04-15T11:33:33;100044.69;;;22.46;53.85
2268;BME280;11052;43.338;25.502;2023-04-15T11:36:00;100046.66;;;22.54;52.26
2268;BME280;11052;43.338;25.502;2023-04-15T11:38:28;100039.41;;;22.46;53.65
2268;BME280;11052;43.338;25.502;2023-04-15T11:40:56;100036.84;;;21.92;49.61
2268;BME280;11052;43.338;25.502;2023-04-15T11:43:23;100043.69;;;21.95;51.71
2268;BME280;11052;43.338;25.502;2023-04-15T11:45:52;100038.66;;;21.91;50.30
2268;BME280;11052;43.338;25.502;2023-04-15T11:48:22;100041.25;;;22.14;52.48
2268;BME280;11052;43.338;25.502;2023-04-15T11:50:53;100038.06;;;22.31;51.07
2268;BME280;11052;43.338;25.502;2023-04-15T11:53:21;100029.09;;;22.43;51.95
2268;BME280;11052;43.338;25.502;2023-04-15T11:55:51;100038.47;;;22.15;52.86
2268;BME280;11052;43.338;25.502;2023-04-15T11:58:19;100033.03;;;22.28;54.03
2268;BME280;11052;43.338;25.502;2023-04-15T12:00:48;100037.97;;;22.21;50.37
2268;BME280;11052;43.338;25.502;2023-04-15T12:03:23;100031.47;;;21.82;53.58
2268;BME280;11052;43.338;25.502;2023-04-15T12:06:09;100039.41;;;21.71;53.84
2268;BME280;11052;43.338;25.502;2023-04-15T12:08:59;100030.41;;;21.74;52.38
2268;BME280;11052;43.338;25.502;2023-04-15T12:11:31;100034.66;;;21.65;52.44
2268;BME280;11052;43.338;25.502;2023-04-15T12:14:03;100041.16;;;21.50;50.95
2268;BME280;11052;43.338;25.502;2023-04-15T12:16:31;100041.09;;;21.72;51.42
2268;BME280;11052;43.338;25.502;2023-04-15T12:19:03;100034.13;;;21.71;51.22
2268;BME280;11052;43.338;25.502;2023-04-15T12:21:34;100034.13;;;21.71;50.78
2268;BME280;11052;43.338;25.502;2023-04-15T12:24:03;100032.88;;;21.66;48.62
2268;BME280;11052;43.338;25.502;2023-04-15T12:26:34;100031.09;;;21.55;53.03
2268;BME280;11052;43.338;25.502;2023-04-15T12:29:01;100033.50;;;21.36;52.42
2268;BME280;11052;43.338;25.502;2023-04-15T12:31:29;100021.84;;;21.49;52.99
2268;BME280;11052;43.338;25.502;2023-04-15T12:33:57;100026.41;;;21.47;51.06
2268;BME280;11052;43.338;25.502;2023-04-15T12:36:27;100016.00;;;21.35;48.97
2268;BME280;11052;43.338;25.502;2023-04-15T12:38:55;100015.75;;;21.49;47.58
2268;BME280;11052;43.338;25.502;2023-04-15T12:41:22;100020.09;;;21.82;51.50
2268;BME280;11052;43.338;25.502;2023-04-15T12:43:50;100014.31;;;21.88;49.57
2268;BME280;11052;43.338;25.502;2023-04-15T12:46:17;100018.78;;;22.19;50.23
2268;BME280;11052;43.338;25.502;2023-04-15T12:48:44;100006.88;;;22.25;52.98
2268;BME280;11052;43.338;25.502;2023-04-15T12:51:12;100006.66;;;22.17;52.40
2268;BME280;11052;43.338;25.502;2023-04-15T12:53:41;100011.78;;;21.86;52.75
2268;BME280;11052;43.338;25.502;2023-04-15T12:56:08;100013.66;;;22.07;54.76
2268;BME280;11052;43.338;25.502;2023-04-15T12:58:35;100010.84;;;22.19;53.67